sensor_id;sensor_type;location;lat;lon;timestamp;P1;durP1;ratioP1;P2;durP2;ratioP2
2674;SDS011;1347;42.122;24.746;2023-03-01T00:01:12;4.37;;;3.93;;
2674;SDS011;1347;42.122;24.746;2023-03-01T00:03:40;7.27;;;5.17;;
2674;SDS011;1347;42.122;24.746;2023-03-01T00:06:09;5.60;;;4.97;;
2674;SDS011;1347;42.122;24.746;2023-03-01T00:08:37;4.73;;;4.23;;
2674;SDS011;1347;42.122;24.746;2023-03-01T00:11:04;4.63;;;4.23;;
2674;SDS011;1347;42.122;24.746;2023-03-01T00:13:32;6.70;;;5.77;;
2674;SDS011;1347;42.122;24.746;2023-03-01T00:16:01;6.77;;;5.20;;
2674;SDS011;1347;42.122;24.746;2023-03-01T00:18:28;6.10;;;5.20;;
2674;SDS011;1347;42.122;24.746;2023-03-01T00:20:55;5.93;;;4.67;;
2674;SDS011;1347;42.122;24.746;2023-03-01T00:23:24;6.47;;;5.03;;
2674;SDS011;1347;42.122;24.746;2023-03-01T00:25:51;5.47;;;4.77;;
2674;SDS011;1347;42.122;24.746;2023-03-01T00:28:18;6.00;;;5.40;;
2674;SDS011;1347;42.122;24.746;2023-03-01T00:30:45;5.50;;;4.90;;
2674;SDS011;1347;42.122;24.746;2023-03-01T00:33:12;5.47;;;4.93;;
2674;SDS011;1347;42.122;24.746;2023-03-01T00:35:40;6.17;;;5.03;;
2674;SDS011;1347;42.122;24.746;2023-03-01T00:38:06;6.63;;;5.03;;
2674;SDS011;1347;42.122;24.746;2023-03-01T00:40:35;11.97;;;5.10;;
2674;SDS011;1347;42.122;24.746;2023-03-01T00:43:03;5.40;;;4.90;;
2674;SDS011;1347;42.122;24.746;2023-03-01T00:45:30;5.70;;;5.10;;
2674;SDS011;1347;42.122;24.746;2023-03-01T00:47:58;6.83;;;5.57;;
2674;SDS011;1347;42.122;24.746;2023-03-01T00:50:25;4.57;;;4.17;;
2674;SDS011;1347;42.122;24.746;2023-03-01T00:52:53;5.07;;;4.57;;
2674;SDS011;1347;42.122;24.746;2023-03-01T00:55:20;5.73;;;5.17;;
2674;SDS011;1347;42.122;24.746;2023-03-01T00:57:49;5.77;;;5.20;;
2674;SDS011;1347;42.122;24.746;2023-03-01T01:00:16;5.23;;;4.43;;
2674;SDS011;1347;42.122;24.746;2023-03-01T01:02:43;5.90;;;5.30;;
2674;SDS011;1347;42.122;24.746;2023-03-01T01:05:11;5.90;;;5.00;;
2674;SDS011;1347;42.122;24.746;2023-03-01T01:07:38;5.37;;;4.87;;
2674;SDS011;1347;42.122;24.746;2023-03-01T01:10:05;5.50;;;4.67;;
2674;SDS011;1347;42.122;24.746;2023-03-01T01:12:33;4.77;;;4.27;;
2674;SDS011;1347;42.122;24.746;2023-03-01T01:15:01;5.50;;;4.90;;
2674;SDS011;1347;42.122;24.746;2023-03-01T01:17:28;4.93;;;3.73;;
2674;SDS011;1347;42.122;24.746;2023-03-01T01:19:55;5.27;;;4.77;;
2674;SDS011;1347;42.122;24.746;2023-03-01T01:22:22;4.80;;;4.00;;
2674;SDS011;1347;42.122;24.746;2023-03-01T01:24:49;5.70;;;5.20;;
2674;SDS011;1347;42.122;24.746;2023-03-01T01:27:16;5.73;;;4.80;;
2674;SDS011;1347;42.122;24.746;2023-03-01T01:29:42;6.70;;;4.60;;
2674;SDS011;1347;42.122;24.746;2023-03-01T01:32:11;4.90;;;4.50;;
2674;SDS011;1347;42.122;24.746;2023-03-01T01:34:38;5.47;;;4.93;;
2674;SDS011;1347;42.122;24.746;2023-03-01T01:37:05;5.90;;;5.30;;
2674;SDS011;1347;42.122;24.746;2023-03-01T01:39:33;4.70;;;4.30;;
2674;SDS011;1347;42.122;24.746;2023-03-01T01:42:00;5.20;;;4.70;;
2674;SDS011;1347;42.122;24.746;2023-03-01T01:44:28;4.90;;;4.40;;
2674;SDS011;1347;42.122;24.746;2023-03-01T01:46:56;5.57;;;5.00;;
2674;SDS011;1347;42.122;24.746;2023-03-01T01:49:29;4.70;;;4.30;;
2674;SDS011;1347;42.122;24.746;2023-03-01T01:52:00;4.90;;;4.27;;
2674;SDS011;1347;42.122;24.746;2023-03-01T01:54:36;5.37;;;4.87;;
2674;SDS011;1347;42.122;24.746;2023-03-01T01:57:07;7.10;;;5.40;;
2674;SDS011;1347;42.122;24.746;2023-03-01T01:59:38;6.70;;;5.37;;
2674;SDS011;1347;42.122;24.746;2023-03-01T02:02:08;13.40;;;6.30;;
2674;SDS011;1347;42.122;24.746;2023-03-01T02:04:37;5.83;;;5.30;;
2674;SDS011;1347;42.122;24.746;2023-03-01T02:07:05;6.93;;;6.07;;
2674;SDS011;1347;42.122;24.746;2023-03-01T02:09:39;6.80;;;6.20;;
2674;SDS011;1347;42.122;24.746;2023-03-01T02:12:08;6.37;;;5.80;;
2674;SDS011;1347;42.122;24.746;2023-03-01T02:14:35;7.30;;;5.47;;
2674;SDS011;1347;42.122;24.746;2023-03-01T02:17:02;6.77;;;6.13;;
2674;SDS011;1347;42.122;24.746;2023-03-01T02:19:32;5.93;;;5.30;;
2674;SDS011;1347;42.122;24.746;2023-03-01T02:22:14;6.93;;;6.33;;
2674;SDS011;1347;42.122;24.746;2023-03-01T02:24:51;6.70;;;6.00;;
2674;SDS011;1347;42.122;24.746;2023-03-01T02:27:31;5.50;;;5.00;;
2674;SDS011;1347;42.122;24.746;2023-03-01T02:30:05;8.20;;;5.37;;
2674;SDS011;1347;42.122;24.746;2023-03-01T02:32:33;6.20;;;5.70;;
2674;SDS011;1347;42.122;24.746;2023-03-01T02:35:00;7.03;;;6.33;;
2674;SDS011;1347;42.122;24.746;2023-03-01T02:37:27;6.03;;;5.20;;
2674;SDS011;1347;42.122;24.746;2023-03-01T02:39:56;7.77;;;6.97;;
2674;SDS011;1347;42.122;24.746;2023-03-01T02:42:26;8.00;;;7.20;;
2674;SDS011;1347;42.122;24.746;2023-03-01T02:44:58;6.70;;;6.00;;
2674;SDS011;1347;42.122;24.746;2023-03-01T02:47:26;8.43;;;6.60;;
2674;SDS011;1347;42.122;24.746;2023-03-01T02:49:53;6.67;;;5.70;;
2674;SDS011;1347;42.122;24.746;2023-03-01T02:52:28;6.80;;;5.90;;
2674;SDS011;1347;42.122;24.746;2023-03-01T02:55:04;6.77;;;6.17;;
2674;SDS011;1347;42.122;24.746;2023-03-01T02:57:34;6.37;;;5.80;;
2674;SDS011;1347;42.122;24.746;2023-03-01T03:00:06;8.07;;;6.73;;
2674;SDS011;1347;42.122;24.746;2023-03-01T03:02:37;7.53;;;6.77;;
2674;SDS011;1347;42.122;24.746;2023-03-01T03:05:05;7.10;;;6.47;;
2674;SDS011;1347;42.122;24.746;2023-03-01T03:07:34;6.80;;;6.13;;
2674;SDS011;1347;42.122;24.746;2023-03-01T03:10:02;7.20;;;6.27;;
2674;SDS011;1347;42.122;24.746;2023-03-01T03:12:31;8.20;;;6.67;;
2674;SDS011;1347;42.122;24.746;2023-03-01T03:14:58;6.93;;;6.30;;
2674;SDS011;1347;42.122;24.746;2023-03-01T03:17:25;7.77;;;6.97;;
2674;SDS011;1347;42.122;24.746;2023-03-01T03:19:53;7.03;;;6.23;;
2674;SDS011;1347;42.122;24.746;2023-03-01T03:22:20;7.77;;;6.20;;
2674;SDS011;1347;42.122;24.746;2023-03-01T03:24:47;7.73;;;6.13;;
2674;SDS011;1347;42.122;24.746;2023-03-01T03:27:14;7.03;;;6.30;;
2674;SDS011;1347;42.122;24.746;2023-03-01T03:29:40;7.30;;;6.47;;
2674;SDS011;1347;42.122;24.746;2023-03-01T03:32:07;7.50;;;6.80;;
2674;SDS011;1347;42.122;24.746;2023-03-01T03:34:34;7.00;;;6.00;;
2674;SDS011;1347;42.122;24.746;2023-03-01T03:37:02;6.60;;;6.00;;
2674;SDS011;1347;42.122;24.746;2023-03-01T03:39:50;6.47;;;5.67;;
2674;SDS011;1347;42.122;24.746;2023-03-01T03:42:19;8.50;;;6.73;;
2674;SDS011;1347;42.122;24.746;2023-03-01T03:44:46;8.37;;;5.90;;
2674;SDS011;1347;42.122;24.746;2023-03-01T03:47:13;7.50;;;6.47;;
2674;SDS011;1347;42.122;24.746;2023-03-01T03:49:40;7.50;;;6.10;;
2674;SDS011;1347;42.122;24.746;2023-03-01T03:52:09;7.37;;;6.40;;
2674;SDS011;1347;42.122;24.746;2023-03-01T03:54:39;7.10;;;6.40;;
2674;SDS011;1347;42.122;24.746;2023-03-01T03:57:06;7.80;;;6.30;;
2674;SDS011;1347;42.122;24.746;2023-03-01T03:59:33;7.33;;;6.63;;
2674;SDS011;1347;42.122;24.746;2023-03-01T04:02:00;6.10;;;5.47;;
2674;SDS011;1347;42.122;24.746;2023-03-01T04:04:27;7.10;;;6.00;;
2674;SDS011;1347;42.122;24.746;2023-03-01T04:06:54;6.70;;;5.93;;
2674;SDS011;1347;42.122;24.746;2023-03-01T04:09:22;6.90;;;6.20;;
2674;SDS011;1347;42.122;24.746;2023-03-01T04:11:49;9.53;;;8.53;;
2674;SDS011;1347;42.122;24.746;2023-03-01T04:14:16;7.87;;;7.07;;
2674;SDS011;1347;42.122;24.746;2023-03-01T04:16:43;7.07;;;6.37;;
2674;SDS011;1347;42.122;24.746;2023-03-01T04:19:09;8.10;;;6.60;;
2674;SDS011;1347;42.122;24.746;2023-03-01T04:21:36;6.63;;;5.97;;
2674;SDS011;1347;42.122;24.746;2023-03-01T04:24:04;8.73;;;5.90;;
2674;SDS011;1347;42.122;24.746;2023-03-01T04:26:33;6.37;;;5.77;;
2674;SDS011;1347;42.122;24.746;2023-03-01T04:29:00;7.30;;;6.10;;
2674;SDS011;1347;42.122;24.746;2023-03-01T04:31:27;7.50;;;6.70;;
2674;SDS011;1347;42.122;24.746;2023-03-01T04:33:54;6.43;;;5.77;;
2674;SDS011;1347;42.122;24.746;2023-03-01T04:36:22;7.47;;;6.47;;
2674;SDS011;1347;42.122;24.746;2023-03-01T04:38:50;7.60;;;6.67;;
2674;SDS011;1347;42.122;24.746;2023-03-01T04:41:18;7.90;;;7.10;;
2674;SDS011;1347;42.122;24.746;2023-03-01T04:43:47;6.33;;;5.53;;
2674;SDS011;1347;42.122;24.746;2023-03-01T04:46:15;7.17;;;6.33;;
2674;SDS011;1347;42.122;24.746;2023-03-01T04:48:44;9.40;;;7.20;;
2674;SDS011;1347;42.122;24.746;2023-03-01T04:51:12;7.83;;;6.70;;
2674;SDS011;1347;42.122;24.746;2023-03-01T04:53:40;7.00;;;6.30;;
2674;SDS011;1347;42.122;24.746;2023-03-01T04:56:07;8.33;;;7.50;;
2674;SDS011;1347;42.122;24.746;2023-03-01T04:58:34;8.50;;;6.93;;
2674;SDS011;1347;42.122;24.746;2023-03-01T05:01:07;10.27;;;7.50;;
2674;SDS011;1347;42.122;24.746;2023-03-01T05:03:40;8.60;;;7.77;;
2674;SDS011;1347;42.122;24.746;2023-03-01T05:06:08;10.17;;;8.57;;
2674;SDS011;1347;42.122;24.746;2023-03-01T05:08:36;9.03;;;7.87;;
2674;SDS011;1347;42.122;24.746;2023-03-01T05:11:03;8.70;;;7.80;;
2674;SDS011;1347;42.122;24.746;2023-03-01T05:13:30;8.20;;;7.37;;
2674;SDS011;1347;42.122;24.746;2023-03-01T05:15:57;10.63;;;9.23;;
2674;SDS011;1347;42.122;24.746;2023-03-01T05:18:30;10.37;;;8.40;;
2674;SDS011;1347;42.122;24.746;2023-03-01T05:21:01;11.17;;;9.27;;
2674;SDS011;1347;42.122;24.746;2023-03-01T05:23:29;10.83;;;9.60;;
2674;SDS011;1347;42.122;24.746;2023-03-01T05:25:57;8.93;;;7.80;;
2674;SDS011;1347;42.122;24.746;2023-03-01T05:28:24;10.40;;;9.20;;
2674;SDS011;1347;42.122;24.746;2023-03-01T05:30:52;11.00;;;9.90;;
2674;SDS011;1347;42.122;24.746;2023-03-01T05:33:18;11.27;;;10.03;;
2674;SDS011;1347;42.122;24.746;2023-03-01T05:35:48;10.90;;;9.70;;
2674;SDS011;1347;42.122;24.746;2023-03-01T05:38:16;10.57;;;9.47;;
2674;SDS011;1347;42.122;24.746;2023-03-01T05:40:44;11.00;;;9.90;;
2674;SDS011;1347;42.122;24.746;2023-03-01T05:43:13;11.63;;;9.30;;
2674;SDS011;1347;42.122;24.746;2023-03-01T05:45:41;11.47;;;9.17;;
2674;SDS011;1347;42.122;24.746;2023-03-01T05:48:08;12.07;;;10.50;;
2674;SDS011;1347;42.122;24.746;2023-03-01T05:50:38;9.80;;;8.80;;
2674;SDS011;1347;42.122;24.746;2023-03-01T05:53:09;10.53;;;9.43;;
2674;SDS011;1347;42.122;24.746;2023-03-01T05:55:37;10.17;;;9.10;;
2674;SDS011;1347;42.122;24.746;2023-03-01T05:58:06;10.97;;;9.80;;
2674;SDS011;1347;42.122;24.746;2023-03-01T06:00:35;10.93;;;9.60;;
2674;SDS011;1347;42.122;24.746;2023-03-01T06:03:02;12.20;;;9.90;;
2674;SDS011;1347;42.122;24.746;2023-03-01T06:05:29;11.63;;;9.27;;
2674;SDS011;1347;42.122;24.746;2023-03-01T06:07:58;11.10;;;9.77;;
2674;SDS011;1347;42.122;24.746;2023-03-01T06:10:27;11.20;;;10.00;;
2674;SDS011;1347;42.122;24.746;2023-03-01T06:12:54;10.73;;;9.67;;
2674;SDS011;1347;42.122;24.746;2023-03-01T06:15:21;11.20;;;9.20;;
2674;SDS011;1347;42.122;24.746;2023-03-01T06:17:49;11.80;;;9.40;;
2674;SDS011;1347;42.122;24.746;2023-03-01T06:20:16;9.93;;;8.77;;
2674;SDS011;1347;42.122;24.746;2023-03-01T06:22:45;9.60;;;8.50;;
2674;SDS011;1347;42.122;24.746;2023-03-01T06:25:13;10.00;;;8.43;;
2674;SDS011;1347;42.122;24.746;2023-03-01T06:27:43;9.33;;;8.33;;
2674;SDS011;1347;42.122;24.746;2023-03-01T06:30:11;8.17;;;7.37;;
2674;SDS011;1347;42.122;24.746;2023-03-01T06:32:39;9.40;;;8.50;;
2674;SDS011;1347;42.122;24.746;2023-03-01T06:35:08;9.47;;;8.50;;
2674;SDS011;1347;42.122;24.746;2023-03-01T06:37:36;10.20;;;9.20;;
2674;SDS011;1347;42.122;24.746;2023-03-01T06:40:03;9.37;;;8.23;;
2674;SDS011;1347;42.122;24.746;2023-03-01T06:42:33;8.97;;;7.60;;
2674;SDS011;1347;42.122;24.746;2023-03-01T06:45:01;9.23;;;8.30;;
2674;SDS011;1347;42.122;24.746;2023-03-01T06:47:29;11.40;;;8.40;;
2674;SDS011;1347;42.122;24.746;2023-03-01T06:49:56;6.70;;;6.00;;
2674;SDS011;1347;42.122;24.746;2023-03-01T06:52:22;7.57;;;6.80;;
2674;SDS011;1347;42.122;24.746;2023-03-01T06:54:49;7.90;;;6.13;;
2674;SDS011;1347;42.122;24.746;2023-03-01T06:57:16;6.77;;;5.27;;
2674;SDS011;1347;42.122;24.746;2023-03-01T06:59:43;6.63;;;5.93;;
2674;SDS011;1347;42.122;24.746;2023-03-01T07:02:12;6.93;;;6.33;;
2674;SDS011;1347;42.122;24.746;2023-03-01T07:04:40;7.53;;;6.83;;
2674;SDS011;1347;42.122;24.746;2023-03-01T07:07:07;7.90;;;6.87;;
2674;SDS011;1347;42.122;24.746;2023-03-01T07:09:34;7.30;;;6.60;;
2674;SDS011;1347;42.122;24.746;2023-03-01T07:12:01;7.87;;;5.63;;
2674;SDS011;1347;42.122;24.746;2023-03-01T07:14:28;6.50;;;5.80;;
2674;SDS011;1347;42.122;24.746;2023-03-01T07:16:55;6.47;;;5.87;;
2674;SDS011;1347;42.122;24.746;2023-03-01T07:19:23;8.57;;;6.53;;
2674;SDS011;1347;42.122;24.746;2023-03-01T07:21:50;9.30;;;6.53;;
2674;SDS011;1347;42.122;24.746;2023-03-01T07:24:17;8.77;;;6.97;;
2674;SDS011;1347;42.122;24.746;2023-03-01T07:26:47;10.13;;;6.30;;
2674;SDS011;1347;42.122;24.746;2023-03-01T07:29:14;7.57;;;6.90;;
2674;SDS011;1347;42.122;24.746;2023-03-01T07:31:42;6.37;;;5.77;;
2674;SDS011;1347;42.122;24.746;2023-03-01T07:34:09;6.90;;;6.17;;
2674;SDS011;1347;42.122;24.746;2023-03-01T07:36:38;6.30;;;5.70;;
2674;SDS011;1347;42.122;24.746;2023-03-01T07:39:08;6.70;;;5.67;;
2674;SDS011;1347;42.122;24.746;2023-03-01T07:41:35;7.40;;;5.47;;
2674;SDS011;1347;42.122;24.746;2023-03-01T07:44:02;6.50;;;5.70;;
2674;SDS011;1347;42.122;24.746;2023-03-01T07:46:29;5.93;;;5.33;;
2674;SDS011;1347;42.122;24.746;2023-03-01T07:48:56;7.40;;;5.03;;
2674;SDS011;1347;42.122;24.746;2023-03-01T07:51:23;7.30;;;6.30;;
2674;SDS011;1347;42.122;24.746;2023-03-01T07:53:52;7.20;;;5.73;;
2674;SDS011;1347;42.122;24.746;2023-03-01T07:56:19;4.07;;;3.63;;
2674;SDS011;1347;42.122;24.746;2023-03-01T07:58:47;3.93;;;3.53;;
2674;SDS011;1347;42.122;24.746;2023-03-01T08:01:14;5.13;;;4.63;;
2674;SDS011;1347;42.122;24.746;2023-03-01T08:03:42;4.10;;;3.70;;
2674;SDS011;1347;42.122;24.746;2023-03-01T08:06:10;4.30;;;3.90;;
2674;SDS011;1347;42.122;24.746;2023-03-01T08:08:38;4.20;;;3.80;;
2674;SDS011;1347;42.122;24.746;2023-03-01T08:11:07;4.03;;;2.80;;
2674;SDS011;1347;42.122;24.746;2023-03-01T08:13:36;4.20;;;3.30;;
2674;SDS011;1347;42.122;24.746;2023-03-01T08:16:03;5.00;;;3.53;;
2674;SDS011;1347;42.122;24.746;2023-03-01T08:18:32;3.10;;;2.80;;
2674;SDS011;1347;42.122;24.746;2023-03-01T08:21:01;2.53;;;2.30;;
2674;SDS011;1347;42.122;24.746;2023-03-01T08:23:29;2.27;;;2.07;;
2674;SDS011;1347;42.122;24.746;2023-03-01T08:26:02;5.00;;;2.40;;
2674;SDS011;1347;42.122;24.746;2023-03-01T08:28:32;3.90;;;2.97;;
2674;SDS011;1347;42.122;24.746;2023-03-01T08:30:59;3.20;;;2.47;;
2674;SDS011;1347;42.122;24.746;2023-03-01T08:33:26;2.77;;;2.57;;
2674;SDS011;1347;42.122;24.746;2023-03-01T08:36:01;3.77;;;2.80;;
2674;SDS011;1347;42.122;24.746;2023-03-01T08:38:29;4.00;;;2.23;;
2674;SDS011;1347;42.122;24.746;2023-03-01T08:40:58;3.07;;;2.77;;
2674;SDS011;1347;42.122;24.746;2023-03-01T08:43:26;3.37;;;3.07;;
2674;SDS011;1347;42.122;24.746;2023-03-01T08:45:54;4.30;;;2.80;;
2674;SDS011;1347;42.122;24.746;2023-03-01T08:48:21;3.67;;;3.33;;
2674;SDS011;1347;42.122;24.746;2023-03-01T08:50:48;7.27;;;4.07;;
2674;SDS011;1347;42.122;24.746;2023-03-01T08:53:15;3.60;;;3.30;;
2674;SDS011;1347;42.122;24.746;2023-03-01T08:55:42;3.23;;;2.93;;
2674;SDS011;1347;42.122;24.746;2023-03-01T08:58:08;5.47;;;3.10;;
2674;SDS011;1347;42.122;24.746;2023-03-01T09:00:35;3.20;;;2.90;;
2674;SDS011;1347;42.122;24.746;2023-03-01T09:03:04;3.00;;;2.70;;
2674;SDS011;1347;42.122;24.746;2023-03-01T09:05:31;2.97;;;2.77;;
2674;SDS011;1347;42.122;24.746;2023-03-01T09:07:58;3.50;;;3.20;;
2674;SDS011;1347;42.122;24.746;2023-03-01T09:10:25;3.00;;;2.60;;
2674;SDS011;1347;42.122;24.746;2023-03-01T09:12:52;6.60;;;4.03;;
2674;SDS011;1347;42.122;24.746;2023-03-01T09:15:19;5.53;;;3.40;;
2674;SDS011;1347;42.122;24.746;2023-03-01T09:17:46;4.37;;;3.97;;
2674;SDS011;1347;42.122;24.746;2023-03-01T09:20:14;3.40;;;2.70;;
2674;SDS011;1347;42.122;24.746;2023-03-01T09:22:41;4.30;;;3.70;;
2674;SDS011;1347;42.122;24.746;2023-03-01T09:25:09;3.67;;;3.37;;
2674;SDS011;1347;42.122;24.746;2023-03-01T09:27:35;3.50;;;3.20;;
2674;SDS011;1347;42.122;24.746;2023-03-01T09:30:03;6.20;;;3.33;;
2674;SDS011;1347;42.122;24.746;2023-03-01T09:32:30;3.90;;;3.20;;
2674;SDS011;1347;42.122;24.746;2023-03-01T09:34:57;4.37;;;3.77;;
2674;SDS011;1347;42.122;24.746;2023-03-01T09:37:31;6.37;;;4.53;;
2674;SDS011;1347;42.122;24.746;2023-03-01T09:39:59;5.57;;;4.97;;
2674;SDS011;1347;42.122;24.746;2023-03-01T09:42:26;5.00;;;4.50;;
2674;SDS011;1347;42.122;24.746;2023-03-01T09:44:57;5.97;;;4.33;;
2674;SDS011;1347;42.122;24.746;2023-03-01T09:47:27;6.00;;;5.40;;
2674;SDS011;1347;42.122;24.746;2023-03-01T09:49:58;6.00;;;5.37;;
2674;SDS011;1347;42.122;24.746;2023-03-01T09:52:34;5.70;;;5.20;;
2674;SDS011;1347;42.122;24.746;2023-03-01T09:55:08;6.03;;;4.70;;
2674;SDS011;1347;42.122;24.746;2023-03-01T09:57:39;3.50;;;3.20;;
2674;SDS011;1347;42.122;24.746;2023-03-01T10:00:20;4.17;;;3.07;;
2674;SDS011;1347;42.122;24.746;2023-03-01T10:06:19;6.23;;;4.10;;
